Agnew, Washington
Current Conditions -  °F | °C
As of 3:53 PM on Saturday 20 Dec 2014 (Local Time) from KCLM Reporting Station
Light Rain Light Rain  
Wind Chill: 47°   Ceiling: 6000
Heat Index: 47°   Visibility: 10mi
Dew Point: 43°   Wind: 0mph
Humidity: 86%   Direction: NA
Pressure: 29.35"   Gusts: NA
Location:  48.0203°N, 123.478°W
Report Text: KCLM 202353Z AUTO 00000KT 10SM -RA BKN060 OVC080 08/06 A2935 RMK AO2 SLP940 P0002 60008 T00830061 10089 20067 58023 TSNO $
Loading
Personal Weather Stations






























Interactive Weather Map New forecast layout! Learn more

10-Day Weather Forecast

Advertisements
Track Severe Weather on mobile